sensor_id;sensor_type;location;lat;lon;timestamp;temperature;humidity
17827;DHT22;9038;48.208;16.308;2023-02-25T00:01:52;11.20;81.30
17827;DHT22;9038;48.208;16.308;2023-02-25T00:03:55;11.10;81.60
17827;DHT22;9038;48.208;16.308;2023-02-25T00:05:56;11.10;81.70
17827;DHT22;9038;48.208;16.308;2023-02-25T00:07:58;11.10;81.70
17827;DHT22;9038;48.208;16.308;2023-02-25T00:10:00;11.10;82.00
17827;DHT22;9038;48.208;16.308;2023-02-25T00:12:02;11.10;82.30
17827;DHT22;9038;48.208;16.308;2023-02-25T00:14:04;11.00;82.70
17827;DHT22;9038;48.208;16.308;2023-02-25T00:16:07;11.00;83.40
17827;DHT22;9038;48.208;16.308;2023-02-25T00:18:10;11.00;83.90
17827;DHT22;9038;48.208;16.308;2023-02-25T00:20:11;10.90;84.10
17827;DHT22;9038;48.208;16.308;2023-02-25T00:22:13;10.90;84.60
17827;DHT22;9038;48.208;16.308;2023-02-25T00:24:15;10.90;84.80
17827;DHT22;9038;48.208;16.308;2023-02-25T00:26:17;10.90;85.00
17827;DHT22;9038;48.208;16.308;2023-02-25T00:28:18;10.90;85.40
17827;DHT22;9038;48.208;16.308;2023-02-25T00:30:20;10.90;85.30
17827;DHT22;9038;48.208;16.308;2023-02-25T00:32:23;10.90;85.40
17827;DHT22;9038;48.208;16.308;2023-02-25T00:34:25;11.00;85.50
17827;DHT22;9038;48.208;16.308;2023-02-25T00:36:27;10.90;85.40
17827;DHT22;9038;48.208;16.308;2023-02-25T00:38:29;10.90;85.40
17827;DHT22;9038;48.208;16.308;2023-02-25T00:40:31;10.90;86.00
17827;DHT22;9038;48.208;16.308;2023-02-25T00:42:33;10.90;86.60
17827;DHT22;9038;48.208;16.308;2023-02-25T00:44:34;10.90;87.10
17827;DHT22;9038;48.208;16.308;2023-02-25T00:46:37;10.90;87.20
17827;DHT22;9038;48.208;16.308;2023-02-25T00:48:40;10.90;87.60
17827;DHT22;9038;48.208;16.308;2023-02-25T00:50:42;10.80;87.90
17827;DHT22;9038;48.208;16.308;2023-02-25T00:52:44;10.80;88.40
17827;DHT22;9038;48.208;16.308;2023-02-25T00:54:45;10.70;89.70
17827;DHT22;9038;48.208;16.308;2023-02-25T00:56:47;10.70;89.40
17827;DHT22;9038;48.208;16.308;2023-02-25T00:58:49;10.60;89.50
17827;DHT22;9038;48.208;16.308;2023-02-25T01:00:51;10.60;90.20
17827;DHT22;9038;48.208;16.308;2023-02-25T01:02:54;10.60;89.30
17827;DHT22;9038;48.208;16.308;2023-02-25T01:04:57;10.50;88.70
17827;DHT22;9038;48.208;16.308;2023-02-25T01:06:59;10.50;88.30
17827;DHT22;9038;48.208;16.308;2023-02-25T01:09:01;10.50;88.50
17827;DHT22;9038;48.208;16.308;2023-02-25T01:11:09;10.40;88.00
17827;DHT22;9038;48.208;16.308;2023-02-25T01:13:20;10.30;88.00
17827;DHT22;9038;48.208;16.308;2023-02-25T01:15:22;10.20;88.10
17827;DHT22;9038;48.208;16.308;2023-02-25T01:17:23;10.20;88.90
17827;DHT22;9038;48.208;16.308;2023-02-25T01:19:25;10.10;87.70
17827;DHT22;9038;48.208;16.308;2023-02-25T01:21:29;10.10;88.40
17827;DHT22;9038;48.208;16.308;2023-02-25T01:23:31;10.00;87.20
17827;DHT22;9038;48.208;16.308;2023-02-25T01:25:33;9.90;88.40
17827;DHT22;9038;48.208;16.308;2023-02-25T01:27:35;9.80;88.80
17827;DHT22;9038;48.208;16.308;2023-02-25T01:29:43;9.80;88.80
17827;DHT22;9038;48.208;16.308;2023-02-25T01:31:45;9.80;89.20
17827;DHT22;9038;48.208;16.308;2023-02-25T01:33:47;9.60;88.10
17827;DHT22;9038;48.208;16.308;2023-02-25T01:35:48;9.60;88.60
17827;DHT22;9038;48.208;16.308;2023-02-25T01:37:52;9.50;89.50
17827;DHT22;9038;48.208;16.308;2023-02-25T01:39:54;9.50;89.90
17827;DHT22;9038;48.208;16.308;2023-02-25T01:41:56;9.40;90.30
17827;DHT22;9038;48.208;16.308;2023-02-25T01:44:06;9.20;90.20
17827;DHT22;9038;48.208;16.308;2023-02-25T01:46:08;9.10;90.80
17827;DHT22;9038;48.208;16.308;2023-02-25T01:48:11;9.00;91.60
17827;DHT22;9038;48.208;16.308;2023-02-25T01:50:13;8.90;91.70
17827;DHT22;9038;48.208;16.308;2023-02-25T01:52:16;8.80;92.40
17827;DHT22;9038;48.208;16.308;2023-02-25T01:54:20;8.80;92.20
17827;DHT22;9038;48.208;16.308;2023-02-25T01:56:22;8.70;92.80
17827;DHT22;9038;48.208;16.308;2023-02-25T01:58:25;8.70;93.30
17827;DHT22;9038;48.208;16.308;2023-02-25T02:00:28;8.70;93.30
17827;DHT22;9038;48.208;16.308;2023-02-25T02:02:31;8.60;93.20
17827;DHT22;9038;48.208;16.308;2023-02-25T02:04:33;8.50;92.90
17827;DHT22;9038;48.208;16.308;2023-02-25T02:06:37;8.30;93.80
17827;DHT22;9038;48.208;16.308;2023-02-25T02:08:40;8.20;95.50
17827;DHT22;9038;48.208;16.308;2023-02-25T02:10:43;8.00;98.40
17827;DHT22;9038;48.208;16.308;2023-02-25T02:12:44;7.80;99.60
17827;DHT22;9038;48.208;16.308;2023-02-25T02:14:47;7.60;97.40
17827;DHT22;9038;48.208;16.308;2023-02-25T02:16:56;7.40;97.70
17827;DHT22;9038;48.208;16.308;2023-02-25T02:19:02;7.30;99.90
17827;DHT22;9038;48.208;16.308;2023-02-25T02:21:10;7.20;99.90
17827;DHT22;9038;48.208;16.308;2023-02-25T02:23:29;7.10;99.90
17827;DHT22;9038;48.208;16.308;2023-02-25T02:25:49;7.10;99.90
17827;DHT22;9038;48.208;16.308;2023-02-25T02:27:59;7.10;99.90
17827;DHT22;9038;48.208;16.308;2023-02-25T02:30:15;7.00;99.90
17827;DHT22;9038;48.208;16.308;2023-02-25T02:32:20;7.10;99.90
17827;DHT22;9038;48.208;16.308;2023-02-25T02:34:27;7.10;99.90
17827;DHT22;9038;48.208;16.308;2023-02-25T02:36:33;7.20;99.90
17827;DHT22;9038;48.208;16.308;2023-02-25T02:38:39;7.20;99.90
17827;DHT22;9038;48.208;16.308;2023-02-25T02:40:46;7.20;99.90
17827;DHT22;9038;48.208;16.308;2023-02-25T02:42:54;7.10;99.50
17827;DHT22;9038;48.208;16.308;2023-02-25T02:45:02;7.20;99.90
17827;DHT22;9038;48.208;16.308;2023-02-25T02:47:07;7.20;99.90
17827;DHT22;9038;48.208;16.308;2023-02-25T02:49:12;7.20;99.30
17827;DHT22;9038;48.208;16.308;2023-02-25T02:51:17;7.20;98.20
17827;DHT22;9038;48.208;16.308;2023-02-25T02:53:21;7.20;98.80
17827;DHT22;9038;48.208;16.308;2023-02-25T02:55:25;7.30;98.40
17827;DHT22;9038;48.208;16.308;2023-02-25T02:57:27;7.30;98.10
17827;DHT22;9038;48.208;16.308;2023-02-25T02:59:30;7.30;97.50
17827;DHT22;9038;48.208;16.308;2023-02-25T03:01:34;7.30;97.30
17827;DHT22;9038;48.208;16.308;2023-02-25T03:03:37;7.40;97.60
17827;DHT22;9038;48.208;16.308;2023-02-25T03:05:42;7.40;97.60
17827;DHT22;9038;48.208;16.308;2023-02-25T03:07:47;7.40;97.70
17827;DHT22;9038;48.208;16.308;2023-02-25T03:09:52;7.40;97.00
17827;DHT22;9038;48.208;16.308;2023-02-25T03:11:55;7.30;96.90
17827;DHT22;9038;48.208;16.308;2023-02-25T03:13:57;7.30;98.80
17827;DHT22;9038;48.208;16.308;2023-02-25T03:15:59;7.20;98.40
17827;DHT22;9038;48.208;16.308;2023-02-25T03:18:03;7.10;97.30
17827;DHT22;9038;48.208;16.308;2023-02-25T03:20:06;7.00;98.50
17827;DHT22;9038;48.208;16.308;2023-02-25T03:22:13;6.90;98.40
17827;DHT22;9038;48.208;16.308;2023-02-25T03:24:16;6.90;98.50
17827;DHT22;9038;48.208;16.308;2023-02-25T03:26:22;6.80;98.00
17827;DHT22;9038;48.208;16.308;2023-02-25T03:28:25;6.60;99.30
17827;DHT22;9038;48.208;16.308;2023-02-25T03:30:28;6.50;99.90
17827;DHT22;9038;48.208;16.308;2023-02-25T03:32:31;6.40;99.60
17827;DHT22;9038;48.208;16.308;2023-02-25T03:34:34;6.30;99.90
17827;DHT22;9038;48.208;16.308;2023-02-25T03:36:38;6.20;99.70
17827;DHT22;9038;48.208;16.308;2023-02-25T03:38:42;6.10;98.60
17827;DHT22;9038;48.208;16.308;2023-02-25T03:40:45;6.10;98.30
17827;DHT22;9038;48.208;16.308;2023-02-25T03:42:50;6.10;98.50
17827;DHT22;9038;48.208;16.308;2023-02-25T03:44:53;6.10;98.60
17827;DHT22;9038;48.208;16.308;2023-02-25T03:46:57;6.10;97.10
17827;DHT22;9038;48.208;16.308;2023-02-25T03:49:00;6.10;97.20
17827;DHT22;9038;48.208;16.308;2023-02-25T03:51:03;6.20;97.20
17827;DHT22;9038;48.208;16.308;2023-02-25T03:53:05;6.20;96.70
17827;DHT22;9038;48.208;16.308;2023-02-25T03:55:09;6.20;96.80
17827;DHT22;9038;48.208;16.308;2023-02-25T03:57:12;6.30;96.30
17827;DHT22;9038;48.208;16.308;2023-02-25T03:59:13;6.40;96.40
17827;DHT22;9038;48.208;16.308;2023-02-25T04:01:16;6.40;96.10
17827;DHT22;9038;48.208;16.308;2023-02-25T04:03:18;6.40;96.00
17827;DHT22;9038;48.208;16.308;2023-02-25T04:05:21;6.50;96.00
17827;DHT22;9038;48.208;16.308;2023-02-25T04:07:23;6.40;95.50
17827;DHT22;9038;48.208;16.308;2023-02-25T04:09:24;6.50;95.30
17827;DHT22;9038;48.208;16.308;2023-02-25T04:11:28;6.50;94.80
17827;DHT22;9038;48.208;16.308;2023-02-25T04:13:29;6.50;94.70
17827;DHT22;9038;48.208;16.308;2023-02-25T04:15:31;6.40;94.60
17827;DHT22;9038;48.208;16.308;2023-02-25T04:17:33;6.40;94.10
17827;DHT22;9038;48.208;16.308;2023-02-25T04:19:35;6.30;94.00
17827;DHT22;9038;48.208;16.308;2023-02-25T04:21:37;6.30;94.00
17827;DHT22;9038;48.208;16.308;2023-02-25T04:23:39;6.30;93.80
17827;DHT22;9038;48.208;16.308;2023-02-25T04:25:41;6.20;93.90
17827;DHT22;9038;48.208;16.308;2023-02-25T04:27:45;6.20;94.20
17827;DHT22;9038;48.208;16.308;2023-02-25T04:29:46;6.20;94.20
17827;DHT22;9038;48.208;16.308;2023-02-25T04:31:48;6.20;94.10
17827;DHT22;9038;48.208;16.308;2023-02-25T04:33:50;6.20;93.70
17827;DHT22;9038;48.208;16.308;2023-02-25T04:35:51;6.10;93.90
17827;DHT22;9038;48.208;16.308;2023-02-25T04:37:53;6.10;93.90
17827;DHT22;9038;48.208;16.308;2023-02-25T04:39:55;6.10;93.80
17827;DHT22;9038;48.208;16.308;2023-02-25T04:41:56;6.10;93.80
17827;DHT22;9038;48.208;16.308;2023-02-25T04:44:00;6.10;93.60
17827;DHT22;9038;48.208;16.308;2023-02-25T04:46:03;6.00;93.60
17827;DHT22;9038;48.208;16.308;2023-02-25T04:48:05;6.00;93.50
17827;DHT22;9038;48.208;16.308;2023-02-25T04:50:07;6.00;93.50
17827;DHT22;9038;48.208;16.308;2023-02-25T04:52:10;6.00;93.70
17827;DHT22;9038;48.208;16.308;2023-02-25T04:54:12;5.90;93.10
17827;DHT22;9038;48.208;16.308;2023-02-25T04:56:14;5.90;93.10
17827;DHT22;9038;48.208;16.308;2023-02-25T04:58:16;5.90;93.30
17827;DHT22;9038;48.208;16.308;2023-02-25T05:00:20;5.90;93.00
17827;DHT22;9038;48.208;16.308;2023-02-25T05:02:23;5.80;93.60
17827;DHT22;9038;48.208;16.308;2023-02-25T05:04:25;5.80;93.30
17827;DHT22;9038;48.208;16.308;2023-02-25T05:06:27;5.90;93.10
17827;DHT22;9038;48.208;16.308;2023-02-25T05:08:28;5.80;93.00
17827;DHT22;9038;48.208;16.308;2023-02-25T05:10:31;5.80;92.90
17827;DHT22;9038;48.208;16.308;2023-02-25T05:12:32;5.80;93.00
17827;DHT22;9038;48.208;16.308;2023-02-25T05:14:35;5.70;93.10
17827;DHT22;9038;48.208;16.308;2023-02-25T05:16:38;5.70;93.20
17827;DHT22;9038;48.208;16.308;2023-02-25T05:18:40;5.60;92.80
17827;DHT22;9038;48.208;16.308;2023-02-25T05:20:43;5.60;92.90
17827;DHT22;9038;48.208;16.308;2023-02-25T05:22:53;5.60;92.90
17827;DHT22;9038;48.208;16.308;2023-02-25T05:24:55;5.60;92.60
17827;DHT22;9038;48.208;16.308;2023-02-25T05:27:03;5.50;92.80
17827;DHT22;9038;48.208;16.308;2023-02-25T05:29:07;5.60;92.80
17827;DHT22;9038;48.208;16.308;2023-02-25T05:31:09;5.60;92.70
17827;DHT22;9038;48.208;16.308;2023-02-25T05:33:13;5.50;92.70
17827;DHT22;9038;48.208;16.308;2023-02-25T05:35:17;5.50;92.70
17827;DHT22;9038;48.208;16.308;2023-02-25T05:37:19;5.50;92.80
17827;DHT22;9038;48.208;16.308;2023-02-25T05:39:21;5.50;92.70
17827;DHT22;9038;48.208;16.308;2023-02-25T05:41:23;5.50;92.70
17827;DHT22;9038;48.208;16.308;2023-02-25T05:43:25;5.50;92.80
17827;DHT22;9038;48.208;16.308;2023-02-25T05:45:26;5.50;92.60
17827;DHT22;9038;48.208;16.308;2023-02-25T05:47:28;5.50;92.70
17827;DHT22;9038;48.208;16.308;2023-02-25T05:49:31;5.50;92.80
17827;DHT22;9038;48.208;16.308;2023-02-25T05:51:33;5.50;92.70
17827;DHT22;9038;48.208;16.308;2023-02-25T05:53:35;5.50;92.70
17827;DHT22;9038;48.208;16.308;2023-02-25T05:55:39;5.50;92.70
17827;DHT22;9038;48.208;16.308;2023-02-25T05:57:41;5.50;92.50
17827;DHT22;9038;48.208;16.308;2023-02-25T05:59:43;5.50;92.50
17827;DHT22;9038;48.208;16.308;2023-02-25T06:01:44;5.60;92.50
17827;DHT22;9038;48.208;16.308;2023-02-25T06:03:46;5.50;92.40
17827;DHT22;9038;48.208;16.308;2023-02-25T06:05:49;5.50;92.40
17827;DHT22;9038;48.208;16.308;2023-02-25T06:07:52;5.50;92.40
17827;DHT22;9038;48.208;16.308;2023-02-25T06:09:54;5.50;92.30
17827;DHT22;9038;48.208;16.308;2023-02-25T06:11:59;5.50;92.40
17827;DHT22;9038;48.208;16.308;2023-02-25T06:14:01;5.50;92.40
17827;DHT22;9038;48.208;16.308;2023-02-25T06:16:03;5.50;92.40
17827;DHT22;9038;48.208;16.308;2023-02-25T06:18:05;5.50;92.20
17827;DHT22;9038;48.208;16.308;2023-02-25T06:20:07;5.50;92.10
17827;DHT22;9038;48.208;16.308;2023-02-25T06:22:11;5.50;92.10
17827;DHT22;9038;48.208;16.308;2023-02-25T06:24:19;5.50;92.10
17827;DHT22;9038;48.208;16.308;2023-02-25T06:26:20;5.50;92.30
17827;DHT22;9038;48.208;16.308;2023-02-25T06:28:22;5.50;92.00
17827;DHT22;9038;48.208;16.308;2023-02-25T06:30:24;5.50;92.10
17827;DHT22;9038;48.208;16.308;2023-02-25T06:32:26;5.60;92.20
17827;DHT22;9038;48.208;16.308;2023-02-25T06:34:30;5.60;92.20
17827;DHT22;9038;48.208;16.308;2023-02-25T06:36:32;5.70;91.90
17827;DHT22;9038;48.208;16.308;2023-02-25T06:38:35;5.70;91.80
17827;DHT22;9038;48.208;16.308;2023-02-25T06:40:37;5.60;91.60
17827;DHT22;9038;48.208;16.308;2023-02-25T06:42:39;5.70;91.60
17827;DHT22;9038;48.208;16.308;2023-02-25T06:44:40;5.70;91.70
17827;DHT22;9038;48.208;16.308;2023-02-25T06:46:42;5.70;91.40
17827;DHT22;9038;48.208;16.308;2023-02-25T06:48:44;5.80;91.50
17827;DHT22;9038;48.208;16.308;2023-02-25T06:50:46;5.80;91.20
17827;DHT22;9038;48.208;16.308;2023-02-25T06:52:47;5.90;91.30
17827;DHT22;9038;48.208;16.308;2023-02-25T06:54:50;6.20;91.00
17827;DHT22;9038;48.208;16.308;2023-02-25T06:56:52;6.80;90.30
17827;DHT22;9038;48.208;16.308;2023-02-25T06:58:55;7.10;89.20
17827;DHT22;9038;48.208;16.308;2023-02-25T07:00:58;7.70;88.60
17827;DHT22;9038;48.208;16.308;2023-02-25T07:03:00;8.40;84.70
17827;DHT22;9038;48.208;16.308;2023-02-25T07:05:02;8.60;82.20
17827;DHT22;9038;48.208;16.308;2023-02-25T07:07:04;8.50;83.00
17827;DHT22;9038;48.208;16.308;2023-02-25T07:09:06;8.50;83.10
17827;DHT22;9038;48.208;16.308;2023-02-25T07:11:10;9.00;81.30
17827;DHT22;9038;48.208;16.308;2023-02-25T07:13:12;9.80;78.90
17827;DHT22;9038;48.208;16.308;2023-02-25T07:15:14;10.40;74.30
17827;DHT22;9038;48.208;16.308;2023-02-25T07:17:16;10.50;73.60
17827;DHT22;9038;48.208;16.308;2023-02-25T07:19:17;10.50;74.70
17827;DHT22;9038;48.208;16.308;2023-02-25T07:21:19;10.80;72.50
17827;DHT22;9038;48.208;16.308;2023-02-25T07:23:22;11.20;71.00
17827;DHT22;9038;48.208;16.308;2023-02-25T07:25:24;11.80;69.60
17827;DHT22;9038;48.208;16.308;2023-02-25T07:27:27;12.70;67.00
17827;DHT22;9038;48.208;16.308;2023-02-25T07:29:28;13.30;63.30
17827;DHT22;9038;48.208;16.308;2023-02-25T07:31:31;13.40;60.60
17827;DHT22;9038;48.208;16.308;2023-02-25T07:33:33;13.60;59.20
17827;DHT22;9038;48.208;16.308;2023-02-25T07:35:34;14.00;57.50
17827;DHT22;9038;48.208;16.308;2023-02-25T07:37:36;14.40;55.20
17827;DHT22;9038;48.208;16.308;2023-02-25T07:39:39;14.70;53.80
17827;DHT22;9038;48.208;16.308;2023-02-25T07:41:42;15.10;50.80
17827;DHT22;9038;48.208;16.308;2023-02-25T07:43:45;15.40;49.30
17827;DHT22;9038;48.208;16.308;2023-02-25T07:45:47;15.90;47.60
17827;DHT22;9038;48.208;16.308;2023-02-25T07:47:51;16.60;46.00
17827;DHT22;9038;48.208;16.308;2023-02-25T07:49:53;17.20;43.20
17827;DHT22;9038;48.208;16.308;2023-02-25T07:51:55;17.40;40.90
17827;DHT22;9038;48.208;16.308;2023-02-25T07:53:57;17.50;39.80
17827;DHT22;9038;48.208;16.308;2023-02-25T07:55:58;17.80;38.20
17827;DHT22;9038;48.208;16.308;2023-02-25T07:58:00;18.00;38.20
17827;DHT22;9038;48.208;16.308;2023-02-25T08:00:04;18.50;37.40
17827;DHT22;9038;48.208;16.308;2023-02-25T08:02:09;18.90;36.50
17827;DHT22;9038;48.208;16.308;2023-02-25T08:04:11;18.80;35.90
17827;DHT22;9038;48.208;16.308;2023-02-25T08:06:13;18.70;35.70
17827;DHT22;9038;48.208;16.308;2023-02-25T08:08:14;18.80;35.80
17827;DHT22;9038;48.208;16.308;2023-02-25T08:10:16;19.20;34.90
17827;DHT22;9038;48.208;16.308;2023-02-25T08:12:18;19.20;34.30
17827;DHT22;9038;48.208;16.308;2023-02-25T08:14:20;19.50;34.50
17827;DHT22;9038;48.208;16.308;2023-02-25T08:16:23;19.90;33.40
17827;DHT22;9038;48.208;16.308;2023-02-25T08:18:25;19.70;31.90
17827;DHT22;9038;48.208;16.308;2023-02-25T08:20:26;19.90;33.50
17827;DHT22;9038;48.208;16.308;2023-02-25T08:22:28;20.00;32.40
17827;DHT22;9038;48.208;16.308;2023-02-25T08:24:30;19.80;32.40
17827;DHT22;9038;48.208;16.308;2023-02-25T08:26:32;18.80;33.50
17827;DHT22;9038;48.208;16.308;2023-02-25T08:28:34;17.70;35.60
17827;DHT22;9038;48.208;16.308;2023-02-25T08:30:36;16.90;37.50
17827;DHT22;9038;48.208;16.308;2023-02-25T08:32:39;16.90;38.70
17827;DHT22;9038;48.208;16.308;2023-02-25T08:34:41;16.80;39.20
17827;DHT22;9038;48.208;16.308;2023-02-25T08:36:43;16.40;40.30
17827;DHT22;9038;48.208;16.308;2023-02-25T08:38:45;15.80;41.80
17827;DHT22;9038;48.208;16.308;2023-02-25T08:40:47;15.50;43.00
17827;DHT22;9038;48.208;16.308;2023-02-25T08:42:48;15.40;43.30
17827;DHT22;9038;48.208;16.308;2023-02-25T08:44:50;16.00;42.50
17827;DHT22;9038;48.208;16.308;2023-02-25T08:46:52;17.00;39.60
17827;DHT22;9038;48.208;16.308;2023-02-25T08:48:55;17.00;39.20
17827;DHT22;9038;48.208;16.308;2023-02-25T08:51:00;16.30;40.50
17827;DHT22;9038;48.208;16.308;2023-02-25T08:53:02;15.30;42.30
17827;DHT22;9038;48.208;16.308;2023-02-25T08:55:04;13.90;45.00
17827;DHT22;9038;48.208;16.308;2023-02-25T08:57:05;12.90;48.50
17827;DHT22;9038;48.208;16.308;2023-02-25T08:59:09;12.50;50.50
17827;DHT22;9038;48.208;16.308;2023-02-25T09:01:13;13.30;49.70
17827;DHT22;9038;48.208;16.308;2023-02-25T09:03:15;14.60;45.20
17827;DHT22;9038;48.208;16.308;2023-02-25T09:05:18;15.60;42.50
17827;DHT22;9038;48.208;16.308;2023-02-25T09:07:20;16.40;40.10
17827;DHT22;9038;48.208;16.308;2023-02-25T09:09:22;17.20;38.10
17827;DHT22;9038;48.208;16.308;2023-02-25T09:11:24;17.70;36.40
17827;DHT22;9038;48.208;16.308;2023-02-25T09:13:25;18.40;36.10
17827;DHT22;9038;48.208;16.308;2023-02-25T09:15:27;19.00;35.10
17827;DHT22;9038;48.208;16.308;2023-02-25T09:17:31;19.50;34.20
17827;DHT22;9038;48.208;16.308;2023-02-25T09:19:33;20.20;33.80
17827;DHT22;9038;48.208;16.308;2023-02-25T09:21:39;20.70;32.70
17827;DHT22;9038;48.208;16.308;2023-02-25T09:23:41;21.20;32.20
17827;DHT22;9038;48.208;16.308;2023-02-25T09:25:43;21.90;31.00
17827;DHT22;9038;48.208;16.308;2023-02-25T09:27:44;22.00;30.00
17827;DHT22;9038;48.208;16.308;2023-02-25T09:29:46;21.80;29.40
17827;DHT22;9038;48.208;16.308;2023-02-25T09:31:48;21.90;29.60
17827;DHT22;9038;48.208;16.308;2023-02-25T09:33:50;21.30;29.50
17827;DHT22;9038;48.208;16.308;2023-02-25T09:35:51;21.60;29.50
17827;DHT22;9038;48.208;16.308;2023-02-25T09:37:54;21.50;29.30
17827;DHT22;9038;48.208;16.308;2023-02-25T09:39:56;21.40;29.10
17827;DHT22;9038;48.208;16.308;2023-02-25T09:41:59;21.00;29.10
17827;DHT22;9038;48.208;16.308;2023-02-25T09:44:03;21.00;29.50
17827;DHT22;9038;48.208;16.308;2023-02-25T09:46:07;21.20;29.60
17827;DHT22;9038;48.208;16.308;2023-02-25T09:48:12;21.90;28.90
17827;DHT22;9038;48.208;16.308;2023-02-25T09:50:15;22.20;28.20
17827;DHT22;9038;48.208;16.308;2023-02-25T09:52:21;22.00;28.10
17827;DHT22;9038;48.208;16.308;2023-02-25T09:54:26;22.20;27.90
17827;DHT22;9038;48.208;16.308;2023-02-25T09:56:30;22.30;28.50
17827;DHT22;9038;48.208;16.308;2023-02-25T09:58:32;22.70;28.00
17827;DHT22;9038;48.208;16.308;2023-02-25T10:00:36;22.50;27.60
17827;DHT22;9038;48.208;16.308;2023-02-25T10:02:43;22.90;27.80
17827;DHT22;9038;48.208;16.308;2023-02-25T10:04:50;23.50;27.10
17827;DHT22;9038;48.208;16.308;2023-02-25T10:06:55;23.90;26.20
17827;DHT22;9038;48.208;16.308;2023-02-25T10:09:01;24.00;26.40
17827;DHT22;9038;48.208;16.308;2023-02-25T10:11:07;24.00;25.60
17827;DHT22;9038;48.208;16.308;2023-02-25T10:13:15;22.40;26.10
17827;DHT22;9038;48.208;16.308;2023-02-25T10:15:25;21.00;28.50
17827;DHT22;9038;48.208;16.308;2023-02-25T10:17:30;19.60;29.30
17827;DHT22;9038;48.208;16.308;2023-02-25T10:19:37;18.20;30.80
17827;DHT22;9038;48.208;16.308;2023-02-25T10:21:47;17.30;32.70
17827;DHT22;9038;48.208;16.308;2023-02-25T10:23:58;16.50;34.10
17827;DHT22;9038;48.208;16.308;2023-02-25T10:26:04;15.60;36.00
17827;DHT22;9038;48.208;16.308;2023-02-25T10:28:11;15.80;35.50
17827;DHT22;9038;48.208;16.308;2023-02-25T10:30:15;15.90;35.40
17827;DHT22;9038;48.208;16.308;2023-02-25T10:32:21;15.60;35.30
17827;DHT22;9038;48.208;16.308;2023-02-25T10:34:24;15.20;36.00
17827;DHT22;9038;48.208;16.308;2023-02-25T10:36:27;15.20;36.90
17827;DHT22;9038;48.208;16.308;2023-02-25T10:38:30;15.30;37.40
17827;DHT22;9038;48.208;16.308;2023-02-25T10:40:32;15.20;37.50
17827;DHT22;9038;48.208;16.308;2023-02-25T10:42:34;14.70;37.40
17827;DHT22;9038;48.208;16.308;2023-02-25T10:44:37;14.60;37.80
17827;DHT22;9038;48.208;16.308;2023-02-25T10:46:41;14.30;38.20
17827;DHT22;9038;48.208;16.308;2023-02-25T10:48:46;14.70;37.90
17827;DHT22;9038;48.208;16.308;2023-02-25T10:51:00;16.00;36.50
17827;DHT22;9038;48.208;16.308;2023-02-25T10:53:03;17.40;33.90
17827;DHT22;9038;48.208;16.308;2023-02-25T10:55:13;18.40;32.40
17827;DHT22;9038;48.208;16.308;2023-02-25T10:57:25;19.10;31.90
17827;DHT22;9038;48.208;16.308;2023-02-25T10:59:29;19.40;29.60
17827;DHT22;9038;48.208;16.308;2023-02-25T11:01:35;19.10;30.00
17827;DHT22;9038;48.208;16.308;2023-02-25T11:03:41;18.30;30.80
17827;DHT22;9038;48.208;16.308;2023-02-25T11:05:44;17.20;31.40
17827;DHT22;9038;48.208;16.308;2023-02-25T11:07:46;16.50;32.90
17827;DHT22;9038;48.208;16.308;2023-02-25T11:09:53;16.50;33.40
17827;DHT22;9038;48.208;16.308;2023-02-25T11:12:10;16.30;33.70
17827;DHT22;9038;48.208;16.308;2023-02-25T11:14:16;16.40;34.30
17827;DHT22;9038;48.208;16.308;2023-02-25T11:16:18;16.60;34.20
17827;DHT22;9038;48.208;16.308;2023-02-25T11:18:22;16.50;33.20
17827;DHT22;9038;48.208;16.308;2023-02-25T11:20:25;16.40;34.00
17827;DHT22;9038;48.208;16.308;2023-02-25T11:22:28;16.20;34.50
17827;DHT22;9038;48.208;16.308;2023-02-25T11:24:32;15.90;35.40
17827;DHT22;9038;48.208;16.308;2023-02-25T11:26:35;15.50;36.10
17827;DHT22;9038;48.208;16.308;2023-02-25T11:28:39;15.10;36.80
17827;DHT22;9038;48.208;16.308;2023-02-25T11:30:41;14.40;37.00
17827;DHT22;9038;48.208;16.308;2023-02-25T11:32:44;13.70;38.80
17827;DHT22;9038;48.208;16.308;2023-02-25T11:34:48;13.40;40.00
17827;DHT22;9038;48.208;16.308;2023-02-25T11:36:51;13.00;41.00
17827;DHT22;9038;48.208;16.308;2023-02-25T11:39:02;12.70;41.60
17827;DHT22;9038;48.208;16.308;2023-02-25T11:41:12;12.40;41.60
17827;DHT22;9038;48.208;16.308;2023-02-25T11:43:16;12.30;42.00
17827;DHT22;9038;48.208;16.308;2023-02-25T11:45:18;12.20;42.60
17827;DHT22;9038;48.208;16.308;2023-02-25T11:47:21;12.10;42.00
17827;DHT22;9038;48.208;16.308;2023-02-25T11:49:26;12.30;42.00
17827;DHT22;9038;48.208;16.308;2023-02-25T11:51:32;12.60;41.60
17827;DHT22;9038;48.208;16.308;2023-02-25T11:53:43;12.80;41.20
17827;DHT22;9038;48.208;16.308;2023-02-25T11:55:51;13.00;40.70
17827;DHT22;9038;48.208;16.308;2023-02-25T11:57:58;13.00;41.00
17827;DHT22;9038;48.208;16.308;2023-02-25T12:00:08;12.80;40.50
17827;DHT22;9038;48.208;16.308;2023-02-25T12:02:18;12.80;41.40
17827;DHT22;9038;48.208;16.308;2023-02-25T12:04:38;12.70;41.60
17827;DHT22;9038;48.208;16.308;2023-02-25T12:11:34;12.10;42.80
17827;DHT22;9038;48.208;16.308;2023-02-25T12:18:41;11.80;44.90
17827;DHT22;9038;48.208;16.308;2023-02-25T12:20:50;11.90;43.70
17827;DHT22;9038;48.208;16.308;2023-02-25T12:23:05;11.80;43.50
17827;DHT22;9038;48.208;16.308;2023-02-25T12:25:15;11.60;43.70
17827;DHT22;9038;48.208;16.308;2023-02-25T12:29:52;11.20;44.60
17827;DHT22;9038;48.208;16.308;2023-02-25T12:32:12;11.00;45.40
17827;DHT22;9038;48.208;16.308;2023-02-25T12:34:42;11.10;46.20
17827;DHT22;9038;48.208;16.308;2023-02-25T12:36:48;11.00;46.10
17827;DHT22;9038;48.208;16.308;2023-02-25T12:41:28;10.90;47.10
17827;DHT22;9038;48.208;16.308;2023-02-25T12:43:33;10.80;46.50
17827;DHT22;9038;48.208;16.308;2023-02-25T12:45:45;10.70;46.30
17827;DHT22;9038;48.208;16.308;2023-02-25T12:47:57;10.60;45.90
17827;DHT22;9038;48.208;16.308;2023-02-25T12:50:12;10.40;45.70
17827;DHT22;9038;48.208;16.308;2023-02-25T12:52:24;10.20;46.00
17827;DHT22;9038;48.208;16.308;2023-02-25T12:54:31;10.20;46.50
17827;DHT22;9038;48.208;16.308;2023-02-25T12:59:14;10.20;44.20
17827;DHT22;9038;48.208;16.308;2023-02-25T13:01:35;10.20;44.10
17827;DHT22;9038;48.208;16.308;2023-02-25T13:03:42;10.30;44.40
17827;DHT22;9038;48.208;16.308;2023-02-25T13:05:54;10.40;44.10
17827;DHT22;9038;48.208;16.308;2023-02-25T13:08:05;10.40;43.70
17827;DHT22;9038;48.208;16.308;2023-02-25T13:10:22;10.60;43.60
17827;DHT22;9038;48.208;16.308;2023-02-25T13:12:33;10.60;43.20
17827;DHT22;9038;48.208;16.308;2023-02-25T13:14:48;10.60;43.30
17827;DHT22;9038;48.208;16.308;2023-02-25T13:16:55;10.60;43.20
17827;DHT22;9038;48.208;16.308;2023-02-25T13:19:04;10.50;43.10
17827;DHT22;9038;48.208;16.308;2023-02-25T13:21:15;10.30;43.40
17827;DHT22;9038;48.208;16.308;2023-02-25T13:23:21;10.30;43.70
17827;DHT22;9038;48.208;16.308;2023-02-25T13:25:29;10.40;44.30
17827;DHT22;9038;48.208;16.308;2023-02-25T13:30:01;10.30;43.40